createdAt,value
2023-07-04T00:03:17.629Z,6.57
2023-07-04T00:08:19.161Z,6.78
2023-07-04T00:13:20.761Z,6.63
2023-07-04T00:18:22.334Z,6.40
2023-07-04T00:23:23.864Z,7.28
2023-07-04T00:28:25.364Z,6.28
2023-07-04T00:33:26.845Z,7.20
2023-07-04T00:38:30.400Z,7.05
2023-07-04T00:43:31.895Z,6.63
2023-07-04T00:48:33.387Z,7.00
2023-07-04T00:53:34.899Z,6.50
2023-07-04T00:58:36.376Z,6.70
2023-07-04T01:03:38.179Z,6.35
2023-07-04T01:08:39.751Z,6.50
2023-07-04T01:13:41.293Z,6.38
2023-07-04T01:18:42.825Z,7.13
2023-07-04T01:23:44.342Z,7.45
2023-07-04T01:28:45.836Z,6.70
2023-07-04T01:33:47.313Z,6.60
2023-07-04T01:38:48.828Z,6.38
2023-07-04T01:43:50.324Z,6.00
2023-07-04T01:48:51.882Z,7.20
2023-07-04T01:53:53.387Z,6.25
2023-07-04T01:58:54.888Z,6.10
2023-07-04T02:03:56.388Z,6.03
2023-07-04T02:08:57.913Z,6.70
2023-07-04T02:13:59.457Z,6.60
2023-07-04T02:19:00.942Z,5.68
2023-07-04T02:24:02.452Z,6.40
2023-07-04T02:29:03.973Z,6.60
2023-07-04T02:34:05.492Z,6.80
2023-07-04T02:39:07.012Z,6.28
2023-07-04T02:44:08.507Z,7.38
2023-07-04T02:49:10.004Z,8.50
2023-07-04T02:54:11.570Z,7.40
2023-07-04T02:59:13.050Z,7.47
2023-07-04T03:04:14.665Z,7.40
2023-07-04T03:09:16.266Z,8.02
2023-07-04T03:14:17.782Z,7.95
2023-07-04T03:19:19.282Z,8.02
2023-07-04T03:24:20.790Z,8.40
2023-07-04T03:29:22.418Z,8.05
2023-07-04T03:34:23.936Z,7.72
2023-07-04T03:39:25.405Z,7.68
2023-07-04T03:44:26.871Z,7.70
2023-07-04T03:49:28.365Z,7.35
2023-07-04T03:54:29.870Z,6.60
2023-07-04T03:59:31.348Z,6.57
2023-07-04T04:04:32.924Z,6.90
2023-07-04T04:09:34.484Z,7.30
2023-07-04T04:14:35.987Z,6.20
2023-07-04T04:19:38.381Z,6.55
2023-07-04T04:24:39.854Z,6.40
2023-07-04T04:29:41.361Z,6.10
2023-07-04T04:34:42.853Z,5.70
2023-07-04T04:39:44.369Z,5.50
2023-07-04T04:44:45.877Z,5.32
2023-07-04T04:49:47.372Z,5.68
2023-07-04T04:54:48.922Z,5.15
2023-07-04T04:59:50.488Z,4.88
2023-07-04T05:04:51.967Z,4.50
2023-07-04T05:09:53.449Z,4.63
2023-07-04T05:14:54.974Z,4.68
2023-07-04T05:19:56.601Z,4.65
2023-07-04T05:24:58.078Z,4.10
2023-07-04T05:29:59.603Z,4.18
2023-07-04T05:35:03.463Z,4.13
2023-07-04T05:40:04.968Z,4.40
2023-07-04T05:45:06.575Z,4.45
2023-07-04T05:50:08.075Z,3.78
2023-07-04T05:55:09.849Z,3.95
2023-07-04T06:00:11.347Z,4.00
2023-07-04T06:05:12.887Z,4.00
2023-07-04T06:10:14.401Z,3.97
2023-07-04T06:15:15.888Z,4.03
2023-07-04T06:20:17.687Z,4.10
2023-07-04T06:25:19.323Z,3.53
2023-07-04T06:30:22.418Z,3.47
2023-07-04T06:35:24.410Z,3.63
2023-07-04T06:40:26.275Z,3.00
2023-07-04T06:45:28.219Z,3.15
2023-07-04T06:50:30.472Z,3.15
2023-07-04T06:55:32.084Z,3.15
2023-07-04T07:00:33.569Z,3.13
2023-07-04T07:05:35.109Z,3.33
2023-07-04T07:10:36.612Z,3.70
2023-07-04T07:15:38.169Z,3.30
2023-07-04T07:20:39.667Z,3.28
2023-07-04T07:25:41.175Z,3.08
2023-07-04T07:30:42.705Z,3.08
2023-07-04T07:35:44.196Z,3.03
2023-07-04T07:40:45.688Z,3.10
2023-07-04T07:45:47.160Z,2.90
2023-07-04T07:50:48.659Z,3.13
2023-07-04T07:55:50.224Z,2.60
2023-07-04T08:00:52.688Z,3.00
2023-07-04T08:05:54.461Z,3.10
2023-07-04T08:10:55.968Z,2.50
2023-07-04T08:15:57.520Z,3.10
2023-07-04T08:20:59.069Z,3.10
2023-07-04T08:26:00.569Z,2.72
2023-07-04T08:31:02.069Z,3.30
2023-07-04T08:36:03.555Z,3.90
2023-07-04T08:41:05.047Z,3.47
2023-07-04T08:46:06.643Z,3.78
2023-07-04T08:51:08.231Z,3.67
2023-07-04T08:56:09.712Z,4.28
2023-07-04T09:01:11.232Z,4.32
2023-07-04T09:06:12.806Z,4.50
2023-07-04T09:11:14.333Z,4.45
2023-07-04T09:16:15.853Z,4.60
2023-07-04T09:21:17.368Z,5.38
2023-07-04T09:26:18.871Z,5.93
2023-07-04T09:31:20.389Z,5.43
2023-07-04T09:36:21.916Z,5.03
2023-07-04T09:41:23.589Z,5.57
2023-07-04T09:46:25.200Z,5.00
2023-07-04T09:51:26.875Z,5.20
2023-07-04T09:56:28.486Z,5.03
2023-07-04T10:01:29.991Z,5.45
2023-07-04T10:06:31.530Z,5.38
2023-07-04T10:11:33.018Z,4.80
2023-07-04T10:16:34.561Z,4.90
2023-07-04T10:21:36.105Z,5.35
2023-07-04T10:26:37.600Z,4.82
2023-07-04T10:31:39.175Z,5.97
2023-07-04T10:36:40.686Z,5.32
2023-07-04T10:41:42.168Z,6.37
2023-07-04T10:46:43.730Z,6.20
2023-07-04T10:51:45.273Z,5.95
2023-07-04T10:56:46.764Z,5.75
2023-07-04T11:01:48.295Z,6.47
2023-07-04T11:06:49.793Z,6.32
2023-07-04T11:11:51.299Z,6.78
2023-07-04T11:16:52.856Z,6.32
2023-07-04T11:21:54.366Z,6.68
2023-07-04T11:26:55.860Z,6.30
2023-07-04T11:31:57.404Z,6.57
2023-07-04T11:36:59.205Z,5.93
2023-07-04T11:42:00.710Z,6.63
2023-07-04T11:47:02.265Z,6.80
2023-07-04T11:52:03.802Z,6.78
2023-07-04T11:57:07.623Z,7.10
2023-07-04T12:02:09.294Z,6.57
2023-07-04T12:07:10.788Z,7.30
2023-07-04T12:12:12.273Z,7.28
2023-07-04T12:17:13.754Z,7.80
2023-07-04T12:22:15.228Z,7.78
2023-07-04T12:27:16.748Z,8.25
2023-07-04T12:32:18.263Z,9.25
2023-07-04T12:37:19.768Z,10.38
2023-07-04T12:42:21.257Z,9.75
2023-07-04T12:47:23.822Z,8.88
2023-07-04T12:52:27.343Z,9.65
2023-07-04T12:57:28.843Z,9.80
2023-07-04T13:02:30.409Z,10.80
2023-07-04T13:07:31.972Z,9.93
2023-07-04T13:12:33.522Z,11.63
2023-07-04T13:17:35.187Z,10.40
2023-07-04T13:24:28.019Z,10.27
2023-07-04T13:28:01.540Z,10.50
2023-07-04T13:33:20.071Z,10.50
2023-07-04T13:48:30.558Z,10.38
2023-07-04T13:53:32.237Z,11.45
2023-07-04T13:58:33.712Z,11.07
2023-07-04T14:08:39.726Z,13.23
2023-07-04T14:13:41.253Z,13.00
2023-07-04T14:23:47.187Z,12.68
2023-07-04T14:28:48.700Z,12.50
2023-07-04T14:33:50.204Z,14.10
2023-07-04T14:38:51.718Z,13.75
2023-07-04T14:43:53.231Z,13.48
2023-07-04T14:48:54.772Z,14.30
2023-07-04T14:53:56.269Z,14.25
2023-07-04T14:58:57.774Z,14.30
2023-07-04T15:03:59.384Z,14.30
2023-07-04T15:09:00.985Z,14.43
2023-07-04T15:14:02.522Z,15.18
2023-07-04T15:19:04.112Z,14.07
2023-07-04T15:24:05.723Z,13.90
2023-07-04T15:29:07.220Z,13.50
2023-07-04T15:34:08.690Z,13.63
2023-07-04T15:39:10.195Z,13.82
2023-07-04T15:44:11.718Z,13.40
2023-07-04T15:49:13.206Z,13.93
2023-07-04T15:54:14.721Z,13.60
2023-07-04T15:59:16.191Z,14.32
2023-07-04T16:04:17.731Z,13.75
2023-07-04T16:09:19.509Z,13.95
2023-07-04T16:14:20.981Z,13.00
2023-07-04T16:19:28.290Z,13.95
2023-07-04T16:24:30.077Z,13.77
2023-07-04T16:29:31.573Z,13.70
2023-07-04T16:34:33.114Z,12.90
2023-07-04T16:39:34.605Z,13.60
2023-07-04T16:44:36.089Z,13.32
2023-07-04T16:49:37.623Z,13.07
2023-07-04T16:54:39.184Z,14.07
2023-07-04T16:59:40.677Z,13.82
2023-07-04T17:04:42.176Z,12.65
2023-07-04T17:09:44.264Z,13.30
2023-07-04T17:14:45.849Z,14.15
2023-07-04T17:19:47.342Z,12.88
2023-07-04T17:24:53.607Z,10.48
2023-07-04T17:30:04.684Z,10.48
2023-07-04T17:35:06.400Z,10.48
2023-07-04T17:40:07.966Z,10.45
2023-07-04T17:45:09.483Z,10.48
2023-07-04T17:50:10.965Z,10.82
2023-07-04T17:55:12.476Z,9.77
2023-07-04T18:00:13.988Z,9.93
2023-07-04T18:05:15.489Z,10.00
2023-07-04T18:10:17.154Z,10.10
2023-07-04T18:15:18.697Z,9.18
2023-07-04T18:20:20.169Z,9.80
2023-07-04T18:25:21.636Z,9.63
2023-07-04T18:30:23.123Z,9.13
2023-07-04T18:35:24.637Z,10.30
2023-07-04T18:40:26.258Z,9.85
2023-07-04T18:45:27.754Z,9.50
2023-07-04T18:50:29.251Z,10.52
2023-07-04T18:55:30.756Z,10.55
2023-07-04T19:00:32.248Z,10.25
2023-07-04T19:05:33.781Z,9.75
2023-07-04T19:10:35.304Z,9.65
2023-07-04T19:15:36.829Z,10.02
2023-07-04T19:20:38.391Z,9.70
2023-07-04T19:25:39.901Z,10.32
2023-07-04T19:30:41.410Z,10.98
2023-07-04T19:35:42.916Z,11.75
2023-07-04T19:40:44.456Z,11.80
2023-07-04T19:45:45.955Z,12.60
2023-07-04T19:50:47.453Z,11.13
2023-07-04T19:55:48.964Z,11.70
2023-07-04T20:00:50.556Z,12.23
2023-07-04T20:05:52.304Z,10.38
2023-07-04T20:10:53.974Z,11.73
2023-07-04T20:15:55.778Z,12.10
2023-07-04T20:20:57.561Z,12.73
2023-07-04T20:25:59.048Z,12.82
2023-07-04T20:31:00.532Z,11.98
2023-07-04T20:36:02.210Z,11.43
2023-07-04T20:41:03.771Z,12.27
2023-07-04T20:46:05.330Z,11.57
2023-07-04T20:51:06.927Z,12.00
2023-07-04T20:56:08.451Z,12.13
2023-07-04T21:01:09.976Z,11.45
2023-07-04T21:06:11.528Z,11.85
2023-07-04T21:11:13.039Z,11.77
2023-07-04T21:16:14.902Z,11.77
2023-07-04T21:21:16.494Z,12.75
2023-07-04T21:26:18.011Z,11.68
2023-07-04T21:31:19.551Z,12.23
2023-07-04T21:36:21.375Z,11.57
2023-07-04T21:41:22.870Z,12.18
2023-07-04T21:46:24.442Z,11.85
2023-07-04T21:51:25.945Z,11.82
2023-07-04T21:56:27.453Z,14.05
2023-07-04T22:01:29.081Z,12.55
2023-07-04T22:06:30.706Z,14.45
2023-07-04T22:11:32.190Z,13.43
2023-07-04T22:16:33.682Z,14.38
2023-07-04T22:21:35.205Z,13.20
2023-07-04T22:26:36.672Z,13.90
2023-07-04T22:31:38.174Z,13.60
2023-07-04T22:36:39.705Z,14.20
2023-07-04T22:41:41.260Z,13.43
2023-07-04T22:46:42.769Z,13.75
2023-07-04T22:51:44.273Z,13.50
2023-07-04T22:56:45.789Z,13.98
2023-07-04T23:01:47.287Z,14.07
2023-07-04T23:06:48.988Z,13.88
2023-07-04T23:11:50.484Z,12.80
2023-07-04T23:16:51.992Z,12.55
2023-07-04T23:21:53.702Z,12.88
2023-07-04T23:26:55.180Z,13.38
2023-07-04T23:31:56.758Z,13.95
2023-07-04T23:36:58.274Z,13.25
2023-07-04T23:41:59.748Z,13.95
2023-07-04T23:47:01.213Z,14.27
2023-07-04T23:52:02.757Z,14.07
2023-07-04T23:57:04.252Z,12.73
